sensor_id;sensor_type;location;lat;lon;timestamp;temperature;humidity
75105;DHT22;64778;47.314;8.466;2023-02-11T00:01:12;-0.70;76.80
75105;DHT22;64778;47.314;8.466;2023-02-11T00:03:40;-0.70;76.80
75105;DHT22;64778;47.314;8.466;2023-02-11T00:06:09;-0.80;77.60
75105;DHT22;64778;47.314;8.466;2023-02-11T00:08:35;-0.80;77.10
75105;DHT22;64778;47.314;8.466;2023-02-11T00:11:00;-0.80;77.20
75105;DHT22;64778;47.314;8.466;2023-02-11T00:13:26;-0.80;77.20
75105;DHT22;64778;47.314;8.466;2023-02-11T00:15:52;-0.90;77.30
75105;DHT22;64778;47.314;8.466;2023-02-11T00:18:20;-0.90;77.50
75105;DHT22;64778;47.314;8.466;2023-02-11T00:20:46;-0.90;77.70
75105;DHT22;64778;47.314;8.466;2023-02-11T00:23:12;-0.90;77.70
75105;DHT22;64778;47.314;8.466;2023-02-11T00:25:41;-0.90;78.70
75105;DHT22;64778;47.314;8.466;2023-02-11T00:28:10;-1.00;79.10
75105;DHT22;64778;47.314;8.466;2023-02-11T00:30:35;-1.00;78.70
75105;DHT22;64778;47.314;8.466;2023-02-11T00:33:03;-1.00;78.50
75105;DHT22;64778;47.314;8.466;2023-02-11T00:35:29;-1.00;78.70
75105;DHT22;64778;47.314;8.466;2023-02-11T00:37:54;-0.90;79.10
75105;DHT22;64778;47.314;8.466;2023-02-11T00:40:20;-1.00;79.00
75105;DHT22;64778;47.314;8.466;2023-02-11T00:42:48;-0.90;78.70
75105;DHT22;64778;47.314;8.466;2023-02-11T00:45:13;-0.90;78.60
75105;DHT22;64778;47.314;8.466;2023-02-11T00:47:39;-0.90;78.80
75105;DHT22;64778;47.314;8.466;2023-02-11T00:50:07;-0.90;79.20
75105;DHT22;64778;47.314;8.466;2023-02-11T00:52:35;-0.90;79.40
75105;DHT22;64778;47.314;8.466;2023-02-11T00:55:00;-0.90;78.90
75105;DHT22;64778;47.314;8.466;2023-02-11T00:57:28;-0.90;78.80
75105;DHT22;64778;47.314;8.466;2023-02-11T00:59:54;-0.90;78.70
75105;DHT22;64778;47.314;8.466;2023-02-11T01:02:22;-0.90;78.90
75105;DHT22;64778;47.314;8.466;2023-02-11T01:04:47;-0.90;79.60
75105;DHT22;64778;47.314;8.466;2023-02-11T01:07:15;-0.90;79.10
75105;DHT22;64778;47.314;8.466;2023-02-11T01:09:40;-0.90;78.90
75105;DHT22;64778;47.314;8.466;2023-02-11T01:12:06;-0.90;79.00
75105;DHT22;64778;47.314;8.466;2023-02-11T01:14:31;-0.90;78.70
75105;DHT22;64778;47.314;8.466;2023-02-11T01:16:57;-1.00;78.90
75105;DHT22;64778;47.314;8.466;2023-02-11T01:19:25;-1.00;78.60
75105;DHT22;64778;47.314;8.466;2023-02-11T01:21:50;-0.90;78.30
75105;DHT22;64778;47.314;8.466;2023-02-11T01:24:16;-1.00;78.40
75105;DHT22;64778;47.314;8.466;2023-02-11T01:26:44;-1.00;78.30
75105;DHT22;64778;47.314;8.466;2023-02-11T01:29:09;-1.00;78.60
75105;DHT22;64778;47.314;8.466;2023-02-11T01:31:37;-1.10;78.50
75105;DHT22;64778;47.314;8.466;2023-02-11T01:34:02;-1.20;79.10
75105;DHT22;64778;47.314;8.466;2023-02-11T01:36:28;-1.20;79.30
75105;DHT22;64778;47.314;8.466;2023-02-11T01:38:56;-1.20;78.70
75105;DHT22;64778;47.314;8.466;2023-02-11T01:41:21;-1.20;79.00
75105;DHT22;64778;47.314;8.466;2023-02-11T01:43:47;-1.30;79.70
75105;DHT22;64778;47.314;8.466;2023-02-11T01:48:45;-1.40;79.80
75105;DHT22;64778;47.314;8.466;2023-02-11T01:51:20;-1.40;79.80
75105;DHT22;64778;47.314;8.466;2023-02-11T01:53:46;-1.40;79.80
75105;DHT22;64778;47.314;8.466;2023-02-11T01:56:31;-1.40;79.60
75105;DHT22;64778;47.314;8.466;2023-02-11T01:59:19;-1.40;79.40
75105;DHT22;64778;47.314;8.466;2023-02-11T02:01:50;-1.40;79.30
75105;DHT22;64778;47.314;8.466;2023-02-11T02:04:17;-1.40;79.30
75105;DHT22;64778;47.314;8.466;2023-02-11T02:06:46;-1.40;79.50
75105;DHT22;64778;47.314;8.466;2023-02-11T02:09:22;-1.50;79.60
75105;DHT22;64778;47.314;8.466;2023-02-11T02:11:50;-1.50;79.20
75105;DHT22;64778;47.314;8.466;2023-02-11T02:14:15;-1.60;79.80
75105;DHT22;64778;47.314;8.466;2023-02-11T02:16:41;-1.60;80.00
75105;DHT22;64778;47.314;8.466;2023-02-11T02:22:01;-1.60;79.60
75105;DHT22;64778;47.314;8.466;2023-02-11T02:37:35;-1.70;80.50
75105;DHT22;64778;47.314;8.466;2023-02-11T02:40:04;-1.70;80.20
75105;DHT22;64778;47.314;8.466;2023-02-11T02:42:32;-1.70;80.20
75105;DHT22;64778;47.314;8.466;2023-02-11T02:44:58;-1.80;80.00
75105;DHT22;64778;47.314;8.466;2023-02-11T02:47:23;-1.80;80.20
75105;DHT22;64778;47.314;8.466;2023-02-11T02:49:51;-1.80;80.30
75105;DHT22;64778;47.314;8.466;2023-02-11T02:52:20;-1.80;80.10
75105;DHT22;64778;47.314;8.466;2023-02-11T03:05:26;-1.90;80.40
75105;DHT22;64778;47.314;8.466;2023-02-11T03:08:09;-2.00;80.40
75105;DHT22;64778;47.314;8.466;2023-02-11T03:10:44;-2.00;80.90
75105;DHT22;64778;47.314;8.466;2023-02-11T03:13:10;-2.00;80.90
75105;DHT22;64778;47.314;8.466;2023-02-11T03:15:42;-2.10;80.80
75105;DHT22;64778;47.314;8.466;2023-02-11T03:18:08;-2.00;80.90
75105;DHT22;64778;47.314;8.466;2023-02-11T03:20:35;-2.00;80.90
75105;DHT22;64778;47.314;8.466;2023-02-11T03:23:10;-2.00;80.70
75105;DHT22;64778;47.314;8.466;2023-02-11T03:25:40;-2.00;80.70
75105;DHT22;64778;47.314;8.466;2023-02-11T03:28:14;-2.00;80.40
75105;DHT22;64778;47.314;8.466;2023-02-11T03:30:48;-1.90;79.90
75105;DHT22;64778;47.314;8.466;2023-02-11T03:33:26;-1.90;79.90
75105;DHT22;64778;47.314;8.466;2023-02-11T03:35:54;-1.90;80.10
75105;DHT22;64778;47.314;8.466;2023-02-11T03:38:22;-1.90;80.60
75105;DHT22;64778;47.314;8.466;2023-02-11T03:40:50;-2.00;80.90
75105;DHT22;64778;47.314;8.466;2023-02-11T03:43:17;-2.00;81.00
75105;DHT22;64778;47.314;8.466;2023-02-11T03:45:49;-2.00;80.90
75105;DHT22;64778;47.314;8.466;2023-02-11T03:48:22;-2.00;81.00
75105;DHT22;64778;47.314;8.466;2023-02-11T03:50:49;-2.00;80.90
75105;DHT22;64778;47.314;8.466;2023-02-11T03:53:16;-2.00;80.90
75105;DHT22;64778;47.314;8.466;2023-02-11T03:55:42;-2.00;81.20
75105;DHT22;64778;47.314;8.466;2023-02-11T03:58:10;-2.00;81.10
75105;DHT22;64778;47.314;8.466;2023-02-11T04:00:39;-2.00;81.10
75105;DHT22;64778;47.314;8.466;2023-02-11T04:03:05;-2.00;80.70
75105;DHT22;64778;47.314;8.466;2023-02-11T04:05:31;-2.00;80.70
75105;DHT22;64778;47.314;8.466;2023-02-11T04:07:57;-2.10;81.20
75105;DHT22;64778;47.314;8.466;2023-02-11T04:10:22;-2.10;81.70
75105;DHT22;64778;47.314;8.466;2023-02-11T04:12:48;-2.10;81.60
75105;DHT22;64778;47.314;8.466;2023-02-11T04:15:13;-2.10;81.80
75105;DHT22;64778;47.314;8.466;2023-02-11T04:17:41;-2.10;81.40
75105;DHT22;64778;47.314;8.466;2023-02-11T04:20:09;-2.00;81.50
75105;DHT22;64778;47.314;8.466;2023-02-11T04:22:35;-2.00;81.40
75105;DHT22;64778;47.314;8.466;2023-02-11T04:25:00;-2.00;81.20
75105;DHT22;64778;47.314;8.466;2023-02-11T04:27:28;-2.00;80.90
75105;DHT22;64778;47.314;8.466;2023-02-11T04:29:54;-2.00;81.00
75105;DHT22;64778;47.314;8.466;2023-02-11T04:32:19;-2.00;80.60
75105;DHT22;64778;47.314;8.466;2023-02-11T04:34:45;-2.00;80.40
75105;DHT22;64778;47.314;8.466;2023-02-11T04:37:11;-2.00;80.50
75105;DHT22;64778;47.314;8.466;2023-02-11T04:39:36;-2.10;81.10
75105;DHT22;64778;47.314;8.466;2023-02-11T04:42:02;-2.10;81.60
75105;DHT22;64778;47.314;8.466;2023-02-11T04:44:32;-2.20;81.60
75105;DHT22;64778;47.314;8.466;2023-02-11T04:46:57;-2.20;81.50
75105;DHT22;64778;47.314;8.466;2023-02-11T04:49:23;-2.20;81.40
75105;DHT22;64778;47.314;8.466;2023-02-11T04:51:48;-2.20;81.60
75105;DHT22;64778;47.314;8.466;2023-02-11T04:54:16;-2.20;81.80
75105;DHT22;64778;47.314;8.466;2023-02-11T04:56:42;-2.20;82.10
75105;DHT22;64778;47.314;8.466;2023-02-11T04:59:09;-2.20;82.10
75105;DHT22;64778;47.314;8.466;2023-02-11T05:01:36;-2.20;81.80
75105;DHT22;64778;47.314;8.466;2023-02-11T05:04:03;-2.20;81.50
75105;DHT22;64778;47.314;8.466;2023-02-11T05:06:29;-2.20;81.40
75105;DHT22;64778;47.314;8.466;2023-02-11T05:08:54;-2.20;81.60
75105;DHT22;64778;47.314;8.466;2023-02-11T05:11:21;-2.20;81.50
75105;DHT22;64778;47.314;8.466;2023-02-11T05:13:47;-2.20;81.70
75105;DHT22;64778;47.314;8.466;2023-02-11T05:16:17;-2.20;81.60
75105;DHT22;64778;47.314;8.466;2023-02-11T05:18:43;-2.20;81.40
75105;DHT22;64778;47.314;8.466;2023-02-11T05:21:10;-2.20;81.60
75105;DHT22;64778;47.314;8.466;2023-02-11T05:23:35;-2.20;81.40
75105;DHT22;64778;47.314;8.466;2023-02-11T05:26:01;-2.20;82.10
75105;DHT22;64778;47.314;8.466;2023-02-11T05:28:27;-2.20;82.30
75105;DHT22;64778;47.314;8.466;2023-02-11T05:30:52;-2.20;82.60
75105;DHT22;64778;47.314;8.466;2023-02-11T05:33:18;-2.20;82.50
75105;DHT22;64778;47.314;8.466;2023-02-11T05:35:46;-2.20;82.20
75105;DHT22;64778;47.314;8.466;2023-02-11T05:38:11;-2.10;82.20
75105;DHT22;64778;47.314;8.466;2023-02-11T05:40:37;-2.10;82.20
75105;DHT22;64778;47.314;8.466;2023-02-11T05:43:05;-2.10;81.90
75105;DHT22;64778;47.314;8.466;2023-02-11T05:45:33;-2.10;81.50
75105;DHT22;64778;47.314;8.466;2023-02-11T05:47:58;-2.20;80.80
75105;DHT22;64778;47.314;8.466;2023-02-11T05:50:24;-2.20;80.70
75105;DHT22;64778;47.314;8.466;2023-02-11T05:52:54;-2.20;80.50
75105;DHT22;64778;47.314;8.466;2023-02-11T05:55:20;-2.30;80.50
75105;DHT22;64778;47.314;8.466;2023-02-11T05:57:45;-2.30;80.50
75105;DHT22;64778;47.314;8.466;2023-02-11T06:00:11;-2.30;80.70
75105;DHT22;64778;47.314;8.466;2023-02-11T06:02:37;-2.30;80.90
75105;DHT22;64778;47.314;8.466;2023-02-11T06:05:02;-2.40;80.90
75105;DHT22;64778;47.314;8.466;2023-02-11T06:07:30;-2.50;81.10
75105;DHT22;64778;47.314;8.466;2023-02-11T06:09:58;-2.50;81.60
75105;DHT22;64778;47.314;8.466;2023-02-11T06:12:24;-2.40;81.80
75105;DHT22;64778;47.314;8.466;2023-02-11T06:14:49;-2.40;81.70
75105;DHT22;64778;47.314;8.466;2023-02-11T06:17:17;-2.40;82.00
75105;DHT22;64778;47.314;8.466;2023-02-11T06:19:45;-2.40;81.50
75105;DHT22;64778;47.314;8.466;2023-02-11T06:22:12;-2.40;81.80
75105;DHT22;64778;47.314;8.466;2023-02-11T06:24:38;-2.40;81.90
75105;DHT22;64778;47.314;8.466;2023-02-11T06:27:03;-2.40;81.60
75105;DHT22;64778;47.314;8.466;2023-02-11T06:29:29;-2.40;81.60
75105;DHT22;64778;47.314;8.466;2023-02-11T06:31:57;-2.40;81.10
75105;DHT22;64778;47.314;8.466;2023-02-11T06:34:22;-2.40;80.80
75105;DHT22;64778;47.314;8.466;2023-02-11T06:36:48;-2.40;80.40
75105;DHT22;64778;47.314;8.466;2023-02-11T06:39:18;-2.40;80.60
75105;DHT22;64778;47.314;8.466;2023-02-11T06:41:43;-2.50;80.80
75105;DHT22;64778;47.314;8.466;2023-02-11T06:44:09;-2.60;81.30
75105;DHT22;64778;47.314;8.466;2023-02-11T06:46:37;-2.50;81.50
75105;DHT22;64778;47.314;8.466;2023-02-11T06:49:02;-2.50;81.80
75105;DHT22;64778;47.314;8.466;2023-02-11T06:51:28;-2.50;81.90
75105;DHT22;64778;47.314;8.466;2023-02-11T06:53:56;-2.50;82.00
75105;DHT22;64778;47.314;8.466;2023-02-11T06:56:26;-2.50;81.70
75105;DHT22;64778;47.314;8.466;2023-02-11T06:58:52;-2.50;81.80
75105;DHT22;64778;47.314;8.466;2023-02-11T07:01:18;-2.50;81.90
75105;DHT22;64778;47.314;8.466;2023-02-11T07:03:49;-2.40;82.00
75105;DHT22;64778;47.314;8.466;2023-02-11T07:06:24;-2.40;81.70
75105;DHT22;64778;47.314;8.466;2023-02-11T07:08:54;-2.40;81.80
75105;DHT22;64778;47.314;8.466;2023-02-11T07:11:23;-2.30;81.80
75105;DHT22;64778;47.314;8.466;2023-02-11T07:13:49;-2.30;82.10
75105;DHT22;64778;47.314;8.466;2023-02-11T07:16:15;-2.20;81.80
75105;DHT22;64778;47.314;8.466;2023-02-11T07:18:41;-2.10;82.10
75105;DHT22;64778;47.314;8.466;2023-02-11T07:21:08;-2.10;82.30
75105;DHT22;64778;47.314;8.466;2023-02-11T07:23:34;-2.10;83.30
75105;DHT22;64778;47.314;8.466;2023-02-11T07:26:05;-2.00;82.30
75105;DHT22;64778;47.314;8.466;2023-02-11T07:28:33;-1.90;81.70
75105;DHT22;64778;47.314;8.466;2023-02-11T07:30:58;-1.80;81.10
75105;DHT22;64778;47.314;8.466;2023-02-11T07:33:24;-1.70;80.60
75105;DHT22;64778;47.314;8.466;2023-02-11T07:35:49;-1.60;80.40
75105;DHT22;64778;47.314;8.466;2023-02-11T07:38:15;-1.60;80.30
75105;DHT22;64778;47.314;8.466;2023-02-11T07:40:43;-1.50;80.40
75105;DHT22;64778;47.314;8.466;2023-02-11T07:43:08;-1.40;80.20
75105;DHT22;64778;47.314;8.466;2023-02-11T07:45:36;-1.30;79.90
75105;DHT22;64778;47.314;8.466;2023-02-11T07:48:02;-1.30;81.20
75105;DHT22;64778;47.314;8.466;2023-02-11T07:50:30;-1.40;81.90
75105;DHT22;64778;47.314;8.466;2023-02-11T07:52:58;-1.40;82.50
75105;DHT22;64778;47.314;8.466;2023-02-11T07:55:23;-1.50;82.30
75105;DHT22;64778;47.314;8.466;2023-02-11T07:57:51;-1.50;82.00
75105;DHT22;64778;47.314;8.466;2023-02-11T08:00:19;-1.80;82.80
75105;DHT22;64778;47.314;8.466;2023-02-11T08:02:44;-1.70;83.10
75105;DHT22;64778;47.314;8.466;2023-02-11T08:05:12;-1.60;82.70
75105;DHT22;64778;47.314;8.466;2023-02-11T08:07:38;-1.50;82.20
75105;DHT22;64778;47.314;8.466;2023-02-11T08:10:06;-1.40;81.70
75105;DHT22;64778;47.314;8.466;2023-02-11T08:12:31;-1.20;80.70
75105;DHT22;64778;47.314;8.466;2023-02-11T08:14:57;-1.20;80.40
75105;DHT22;64778;47.314;8.466;2023-02-11T08:17:22;-1.10;80.80
75105;DHT22;64778;47.314;8.466;2023-02-11T08:19:48;-1.00;80.70
75105;DHT22;64778;47.314;8.466;2023-02-11T08:22:13;-0.80;80.60
75105;DHT22;64778;47.314;8.466;2023-02-11T08:24:39;-0.80;80.60
75105;DHT22;64778;47.314;8.466;2023-02-11T08:27:04;-0.70;80.70
75105;DHT22;64778;47.314;8.466;2023-02-11T08:29:30;-0.60;81.00
75105;DHT22;64778;47.314;8.466;2023-02-11T08:31:55;-0.60;82.00
75105;DHT22;64778;47.314;8.466;2023-02-11T08:34:23;-0.60;82.50
75105;DHT22;64778;47.314;8.466;2023-02-11T08:36:49;-0.60;82.60
75105;DHT22;64778;47.314;8.466;2023-02-11T08:39:15;-0.70;83.00
75105;DHT22;64778;47.314;8.466;2023-02-11T08:41:44;-0.80;84.00
75105;DHT22;64778;47.314;8.466;2023-02-11T08:44:10;-0.70;84.00
75105;DHT22;64778;47.314;8.466;2023-02-11T08:46:35;-0.80;84.30
75105;DHT22;64778;47.314;8.466;2023-02-11T08:49:01;-0.80;84.60
75105;DHT22;64778;47.314;8.466;2023-02-11T08:51:27;-0.90;84.40
75105;DHT22;64778;47.314;8.466;2023-02-11T08:53:54;-0.90;85.00
75105;DHT22;64778;47.314;8.466;2023-02-11T08:56:20;-0.80;84.70
75105;DHT22;64778;47.314;8.466;2023-02-11T08:58:47;-0.50;84.40
75105;DHT22;64778;47.314;8.466;2023-02-11T09:01:14;-0.20;83.10
75105;DHT22;64778;47.314;8.466;2023-02-11T09:03:40;0.10;82.30
75105;DHT22;64778;47.314;8.466;2023-02-11T09:06:09;0.20;82.40
75105;DHT22;64778;47.314;8.466;2023-02-11T09:08:38;0.60;80.90
75105;DHT22;64778;47.314;8.466;2023-02-11T09:11:06;0.80;80.60
75105;DHT22;64778;47.314;8.466;2023-02-11T09:13:32;0.90;79.20
75105;DHT22;64778;47.314;8.466;2023-02-11T09:16:00;0.90;80.00
75105;DHT22;64778;47.314;8.466;2023-02-11T09:18:28;1.30;79.60
75105;DHT22;64778;47.314;8.466;2023-02-11T09:21:01;1.60;78.20
75105;DHT22;64778;47.314;8.466;2023-02-11T09:23:29;1.90;76.70
75105;DHT22;64778;47.314;8.466;2023-02-11T09:25:54;2.30;75.70
75105;DHT22;64778;47.314;8.466;2023-02-11T09:28:22;2.50;75.00
75105;DHT22;64778;47.314;8.466;2023-02-11T09:30:48;2.30;74.30
75105;DHT22;64778;47.314;8.466;2023-02-11T09:33:13;2.40;74.00
75105;DHT22;64778;47.314;8.466;2023-02-11T09:35:39;1.70;75.20
75105;DHT22;64778;47.314;8.466;2023-02-11T09:38:05;1.40;77.10
75105;DHT22;64778;47.314;8.466;2023-02-11T09:40:30;1.80;76.40
75105;DHT22;64778;47.314;8.466;2023-02-11T09:43:04;2.00;75.30
75105;DHT22;64778;47.314;8.466;2023-02-11T09:45:33;2.50;74.90
75105;DHT22;64778;47.314;8.466;2023-02-11T09:48:09;2.80;72.30
75105;DHT22;64778;47.314;8.466;2023-02-11T09:50:44;3.20;77.20
75105;DHT22;64778;47.314;8.466;2023-02-11T09:55:45;3.20;70.30
75105;DHT22;64778;47.314;8.466;2023-02-11T10:00:43;3.50;68.90
75105;DHT22;64778;47.314;8.466;2023-02-11T10:11:30;4.70;65.70
75105;DHT22;64778;47.314;8.466;2023-02-11T10:20:02;4.80;64.10
75105;DHT22;64778;47.314;8.466;2023-02-11T10:22:40;4.60;64.10
75105;DHT22;64778;47.314;8.466;2023-02-11T10:27:58;4.90;64.20
75105;DHT22;64778;47.314;8.466;2023-02-11T10:30:37;5.00;62.80
75105;DHT22;64778;47.314;8.466;2023-02-11T10:33:13;5.00;64.20
75105;DHT22;64778;47.314;8.466;2023-02-11T10:35:43;5.50;62.20
75105;DHT22;64778;47.314;8.466;2023-02-11T10:38:10;5.50;61.70
75105;DHT22;64778;47.314;8.466;2023-02-11T10:40:36;5.80;61.60
75105;DHT22;64778;47.314;8.466;2023-02-11T10:43:05;6.10;60.80
75105;DHT22;64778;47.314;8.466;2023-02-11T10:54:10;7.10;57.60
75105;DHT22;64778;47.314;8.466;2023-02-11T10:56:48;7.20;56.50
75105;DHT22;64778;47.314;8.466;2023-02-11T11:02:03;7.40;55.40
75105;DHT22;64778;47.314;8.466;2023-02-11T11:04:38;7.00;55.90
75105;DHT22;64778;47.314;8.466;2023-02-11T11:13:26;6.00;60.40
75105;DHT22;64778;47.314;8.466;2023-02-11T11:18:44;6.90;58.00
75105;DHT22;64778;47.314;8.466;2023-02-11T11:21:25;7.20;56.30
75105;DHT22;64778;47.314;8.466;2023-02-11T11:23:53;6.70;56.30
75105;DHT22;64778;47.314;8.466;2023-02-11T11:26:21;7.10;56.20
75105;DHT22;64778;47.314;8.466;2023-02-11T11:28:57;7.50;53.60
75105;DHT22;64778;47.314;8.466;2023-02-11T11:31:32;7.80;52.00
75105;DHT22;64778;47.314;8.466;2023-02-11T11:34:27;8.00;51.40
75105;DHT22;64778;47.314;8.466;2023-02-11T11:36:51;8.00;50.50
75105;DHT22;64778;47.314;8.466;2023-02-11T11:39:26;8.30;49.20
75105;DHT22;64778;47.314;8.466;2023-02-11T11:41:55;8.40;48.80
75105;DHT22;64778;47.314;8.466;2023-02-11T11:44:34;8.40;48.20
75105;DHT22;64778;47.314;8.466;2023-02-11T11:49:54;8.10;49.30
75105;DHT22;64778;47.314;8.466;2023-02-11T11:57:38;7.70;48.30
75105;DHT22;64778;47.314;8.466;2023-02-11T12:00:09;7.80;48.70
75105;DHT22;64778;47.314;8.466;2023-02-11T12:06:16;7.90;49.10
75105;DHT22;64778;47.314;8.466;2023-02-11T12:16:48;10.60;43.70
75105;DHT22;64778;47.314;8.466;2023-02-11T12:56:59;16.30;33.90
75105;DHT22;64778;47.314;8.466;2023-02-11T13:02:30;15.80;32.60
75105;DHT22;64778;47.314;8.466;2023-02-11T13:05:18;16.30;32.90
75105;DHT22;64778;47.314;8.466;2023-02-11T13:07:50;16.90;32.70
75105;DHT22;64778;47.314;8.466;2023-02-11T13:10:28;16.50;32.00
75105;DHT22;64778;47.314;8.466;2023-02-11T13:12:55;15.50;33.40
75105;DHT22;64778;47.314;8.466;2023-02-11T13:15:42;16.40;31.70
75105;DHT22;64778;47.314;8.466;2023-02-11T13:18:30;16.50;32.50
75105;DHT22;64778;47.314;8.466;2023-02-11T13:40:19;18.20;29.70
75105;DHT22;64778;47.314;8.466;2023-02-11T13:45:31;18.80;29.20
75105;DHT22;64778;47.314;8.466;2023-02-11T13:48:05;19.80;28.40
75105;DHT22;64778;47.314;8.466;2023-02-11T13:50:38;19.10;28.50
75105;DHT22;64778;47.314;8.466;2023-02-11T13:53:05;18.00;29.20
75105;DHT22;64778;47.314;8.466;2023-02-11T13:55:34;17.70;29.50
75105;DHT22;64778;47.314;8.466;2023-02-11T14:00:51;18.80;28.80
75105;DHT22;64778;47.314;8.466;2023-02-11T14:08:59;19.80;27.70
75105;DHT22;64778;47.314;8.466;2023-02-11T14:19:45;18.50;27.00
75105;DHT22;64778;47.314;8.466;2023-02-11T14:22:21;18.70;26.80
75105;DHT22;64778;47.314;8.466;2023-02-11T14:24:59;19.50;27.20
75105;DHT22;64778;47.314;8.466;2023-02-11T14:36:07;21.40;25.40
75105;DHT22;64778;47.314;8.466;2023-02-11T14:41:17;18.20;27.00
75105;DHT22;64778;47.314;8.466;2023-02-11T14:43:47;18.50;26.60
75105;DHT22;64778;47.314;8.466;2023-02-11T14:46:16;17.60;27.80
75105;DHT22;64778;47.314;8.466;2023-02-11T14:48:45;16.60;28.10
75105;DHT22;64778;47.314;8.466;2023-02-11T14:53:57;15.60;29.70
75105;DHT22;64778;47.314;8.466;2023-02-11T14:56:27;16.10;29.20
75105;DHT22;64778;47.314;8.466;2023-02-11T14:58:57;16.90;28.40
75105;DHT22;64778;47.314;8.466;2023-02-11T15:04:00;18.50;27.60
75105;DHT22;64778;47.314;8.466;2023-02-11T15:09:04;19.90;27.00
75105;DHT22;64778;47.314;8.466;2023-02-11T15:11:33;20.80;25.90
75105;DHT22;64778;47.314;8.466;2023-02-11T15:14:27;22.30;24.80
75105;DHT22;64778;47.314;8.466;2023-02-11T15:16:58;22.30;24.50
75105;DHT22;64778;47.314;8.466;2023-02-11T15:19:30;22.60;25.10
75105;DHT22;64778;47.314;8.466;2023-02-11T15:22:03;23.00;24.50
75105;DHT22;64778;47.314;8.466;2023-02-11T15:24:33;22.50;25.00
75105;DHT22;64778;47.314;8.466;2023-02-11T15:29:37;23.40;24.80
75105;DHT22;64778;47.314;8.466;2023-02-11T15:34:39;22.30;24.70
75105;DHT22;64778;47.314;8.466;2023-02-11T15:37:09;23.20;24.70
75105;DHT22;64778;47.314;8.466;2023-02-11T15:39:39;23.70;23.90
75105;DHT22;64778;47.314;8.466;2023-02-11T15:42:27;24.10;23.70
75105;DHT22;64778;47.314;8.466;2023-02-11T15:48:08;22.40;25.20
75105;DHT22;64778;47.314;8.466;2023-02-11T15:50:35;21.80;25.10
75105;DHT22;64778;47.314;8.466;2023-02-11T15:53:26;22.50;25.50
75105;DHT22;64778;47.314;8.466;2023-02-11T15:58:35;20.60;26.10
75105;DHT22;64778;47.314;8.466;2023-02-11T16:01:04;21.40;25.60
75105;DHT22;64778;47.314;8.466;2023-02-11T16:03:31;20.70;26.40
75105;DHT22;64778;47.314;8.466;2023-02-11T16:06:18;20.00;27.10
75105;DHT22;64778;47.314;8.466;2023-02-11T16:09:01;19.90;27.20
75105;DHT22;64778;47.314;8.466;2023-02-11T16:11:35;18.50;27.90
75105;DHT22;64778;47.314;8.466;2023-02-11T16:14:18;16.80;29.60
75105;DHT22;64778;47.314;8.466;2023-02-11T16:16:47;15.40;31.70
75105;DHT22;64778;47.314;8.466;2023-02-11T16:19:18;13.90;34.10
75105;DHT22;64778;47.314;8.466;2023-02-11T16:21:44;12.60;36.80
75105;DHT22;64778;47.314;8.466;2023-02-11T16:27:38;10.90;39.60
75105;DHT22;64778;47.314;8.466;2023-02-11T16:30:05;10.20;40.50
75105;DHT22;64778;47.314;8.466;2023-02-11T16:32:31;9.80;41.30
75105;DHT22;64778;47.314;8.466;2023-02-11T16:34:59;9.00;42.90
75105;DHT22;64778;47.314;8.466;2023-02-11T16:37:27;8.60;44.00
75105;DHT22;64778;47.314;8.466;2023-02-11T16:39:59;8.40;44.00
75105;DHT22;64778;47.314;8.466;2023-02-11T16:42:25;8.20;44.70
75105;DHT22;64778;47.314;8.466;2023-02-11T16:44:50;8.00;45.20
75105;DHT22;64778;47.314;8.466;2023-02-11T16:47:19;7.70;45.90
75105;DHT22;64778;47.314;8.466;2023-02-11T16:49:46;7.40;46.80
75105;DHT22;64778;47.314;8.466;2023-02-11T16:52:12;7.20;47.30
75105;DHT22;64778;47.314;8.466;2023-02-11T16:54:39;7.00;47.30
75105;DHT22;64778;47.314;8.466;2023-02-11T16:57:08;6.70;48.00
75105;DHT22;64778;47.314;8.466;2023-02-11T16:59:37;6.60;48.20
75105;DHT22;64778;47.314;8.466;2023-02-11T17:02:03;6.30;48.40
75105;DHT22;64778;47.314;8.466;2023-02-11T17:04:29;6.20;49.60
75105;DHT22;64778;47.314;8.466;2023-02-11T17:06:55;6.20;50.50
75105;DHT22;64778;47.314;8.466;2023-02-11T17:09:25;6.00;51.00
75105;DHT22;64778;47.314;8.466;2023-02-11T17:11:51;5.90;52.00
75105;DHT22;64778;47.314;8.466;2023-02-11T17:14:19;5.90;52.40
75105;DHT22;64778;47.314;8.466;2023-02-11T17:16:46;5.80;53.30
75105;DHT22;64778;47.314;8.466;2023-02-11T17:19:16;5.60;53.70
75105;DHT22;64778;47.314;8.466;2023-02-11T17:21:48;5.40;54.90
75105;DHT22;64778;47.314;8.466;2023-02-11T17:24:18;5.20;56.20
75105;DHT22;64778;47.314;8.466;2023-02-11T17:26:45;4.80;58.30
75105;DHT22;64778;47.314;8.466;2023-02-11T17:29:13;4.70;58.90
75105;DHT22;64778;47.314;8.466;2023-02-11T17:31:40;4.70;59.30
75105;DHT22;64778;47.314;8.466;2023-02-11T17:34:06;4.80;59.60
75105;DHT22;64778;47.314;8.466;2023-02-11T17:36:31;4.80;59.80
75105;DHT22;64778;47.314;8.466;2023-02-11T17:39:01;4.80;60.40
75105;DHT22;64778;47.314;8.466;2023-02-11T17:41:28;4.80;60.20
75105;DHT22;64778;47.314;8.466;2023-02-11T17:43:56;4.80;59.70
75105;DHT22;64778;47.314;8.466;2023-02-11T17:46:22;4.70;59.40
75105;DHT22;64778;47.314;8.466;2023-02-11T17:48:48;4.60;59.50
75105;DHT22;64778;47.314;8.466;2023-02-11T17:51:24;4.40;60.00
75105;DHT22;64778;47.314;8.466;2023-02-11T17:53:55;4.40;60.80
75105;DHT22;64778;47.314;8.466;2023-02-11T17:56:21;4.30;60.80
75105;DHT22;64778;47.314;8.466;2023-02-11T17:58:49;4.30;60.60
75105;DHT22;64778;47.314;8.466;2023-02-11T18:01:18;4.30;60.70
75105;DHT22;64778;47.314;8.466;2023-02-11T18:03:46;4.30;61.30
75105;DHT22;64778;47.314;8.466;2023-02-11T18:06:12;4.30;62.00
75105;DHT22;64778;47.314;8.466;2023-02-11T18:08:37;4.20;62.20
75105;DHT22;64778;47.314;8.466;2023-02-11T18:11:10;4.10;62.40
75105;DHT22;64778;47.314;8.466;2023-02-11T18:13:36;4.10;62.80
75105;DHT22;64778;47.314;8.466;2023-02-11T18:16:06;4.10;62.70
75105;DHT22;64778;47.314;8.466;2023-02-11T18:18:35;4.10;63.10
75105;DHT22;64778;47.314;8.466;2023-02-11T18:21:03;4.00;63.20
75105;DHT22;64778;47.314;8.466;2023-02-11T18:23:32;4.00;63.30
75105;DHT22;64778;47.314;8.466;2023-02-11T18:25:58;3.90;63.30
75105;DHT22;64778;47.314;8.466;2023-02-11T18:28:23;3.90;63.10
75105;DHT22;64778;47.314;8.466;2023-02-11T18:30:58;3.80;63.40
75105;DHT22;64778;47.314;8.466;2023-02-11T18:33:27;3.80;63.50
75105;DHT22;64778;47.314;8.466;2023-02-11T18:35:57;3.80;63.50
75105;DHT22;64778;47.314;8.466;2023-02-11T18:38:25;3.70;64.20
75105;DHT22;64778;47.314;8.466;2023-02-11T18:40:51;3.50;64.50
75105;DHT22;64778;47.314;8.466;2023-02-11T18:43:18;3.50;64.50
75105;DHT22;64778;47.314;8.466;2023-02-11T18:45:45;3.50;65.50
75105;DHT22;64778;47.314;8.466;2023-02-11T18:48:13;3.50;63.90
75105;DHT22;64778;47.314;8.466;2023-02-11T18:50:43;3.50;63.30
75105;DHT22;64778;47.314;8.466;2023-02-11T18:53:11;3.50;63.30
75105;DHT22;64778;47.314;8.466;2023-02-11T18:55:40;3.50;63.40
75105;DHT22;64778;47.314;8.466;2023-02-11T18:58:06;3.50;63.10
75105;DHT22;64778;47.314;8.466;2023-02-11T19:00:35;3.40;63.20
75105;DHT22;64778;47.314;8.466;2023-02-11T19:03:04;3.30;64.10
75105;DHT22;64778;47.314;8.466;2023-02-11T19:05:32;3.30;63.90
75105;DHT22;64778;47.314;8.466;2023-02-11T19:08:09;3.30;64.10